sensor_id;sensor_type;location;lat;lon;timestamp;pressure;altitude;pressure_sealevel;temperature;humidity
41898;BME280;27576;53.366;-1.498;2022-09-09T00:00:13;98969.19;;;15.39;100.00
41898;BME280;27576;53.366;-1.498;2022-09-09T00:05:55;98986.31;;;15.47;100.00
41898;BME280;27576;53.366;-1.498;2022-09-09T00:08:48;98980.34;;;15.44;100.00
41898;BME280;27576;53.366;-1.498;2022-09-09T00:11:25;98994.13;;;15.49;100.00
41898;BME280;27576;53.366;-1.498;2022-09-09T00:13:56;98992.38;;;15.50;100.00
41898;BME280;27576;53.366;-1.498;2022-09-09T00:16:27;99002.81;;;15.50;100.00
41898;BME280;27576;53.366;-1.498;2022-09-09T00:19:08;98994.06;;;15.51;100.00
41898;BME280;27576;53.366;-1.498;2022-09-09T00:22:05;98994.13;;;15.49;100.00
41898;BME280;27576;53.366;-1.498;2022-09-09T00:24:43;98971.84;;;15.37;100.00
41898;BME280;27576;53.366;-1.498;2022-09-09T00:29:47;98963.41;;;15.29;100.00
41898;BME280;27576;53.366;-1.498;2022-09-09T00:32:17;98982.19;;;15.40;100.00
41898;BME280;27576;53.366;-1.498;2022-09-09T00:35:04;98975.31;;;15.38;100.00
41898;BME280;27576;53.366;-1.498;2022-09-09T00:37:37;98990.00;;;15.42;100.00
41898;BME280;27576;53.366;-1.498;2022-09-09T00:40:18;98999.50;;;15.44;100.00
41898;BME280;27576;53.366;-1.498;2022-09-09T00:42:53;98970.25;;;15.33;100.00
41898;BME280;27576;53.366;-1.498;2022-09-09T00:45:52;98995.06;;;15.46;100.00
41898;BME280;27576;53.366;-1.498;2022-09-09T00:48:27;98971.94;;;15.34;100.00
41898;BME280;27576;53.366;-1.498;2022-09-09T00:51:05;98994.22;;;15.46;100.00
41898;BME280;27576;53.366;-1.498;2022-09-09T01:02:16;98975.50;;;15.32;100.00
41898;BME280;27576;53.366;-1.498;2022-09-09T01:04:47;98991.75;;;15.41;100.00
41898;BME280;27576;53.366;-1.498;2022-09-09T01:07:17;98992.75;;;15.37;100.00
41898;BME280;27576;53.366;-1.498;2022-09-09T01:09:54;98981.47;;;15.35;100.00
41898;BME280;27576;53.366;-1.498;2022-09-09T01:12:25;98988.28;;;15.41;100.00
41898;BME280;27576;53.366;-1.498;2022-09-09T01:14:58;98957.41;;;15.26;100.00
41898;BME280;27576;53.366;-1.498;2022-09-09T01:17:35;98988.31;;;15.39;100.00
41898;BME280;27576;53.366;-1.498;2022-09-09T01:20:15;98976.31;;;15.34;100.00
41898;BME280;27576;53.366;-1.498;2022-09-09T01:28:35;98996.13;;;15.41;100.00
41898;BME280;27576;53.366;-1.498;2022-09-09T01:31:04;99002.22;;;15.40;100.00
41898;BME280;27576;53.366;-1.498;2022-09-09T01:33:31;98987.53;;;15.36;100.00
41898;BME280;27576;53.366;-1.498;2022-09-09T01:36:46;98992.75;;;15.37;100.00
41898;BME280;27576;53.366;-1.498;2022-09-09T01:38:51;98986.78;;;15.32;100.00
41898;BME280;27576;53.366;-1.498;2022-09-09T01:41:17;98997.91;;;15.39;100.00
41898;BME280;27576;53.366;-1.498;2022-09-09T01:43:43;98968.78;;;15.23;100.00
41898;BME280;27576;53.366;-1.498;2022-09-09T01:46:09;98985.06;;;15.33;100.00
41898;BME280;27576;53.366;-1.498;2022-09-09T01:48:36;98959.28;;;15.20;100.00
41898;BME280;27576;53.366;-1.498;2022-09-09T01:51:01;98979.84;;;15.33;100.00
41898;BME280;27576;53.366;-1.498;2022-09-09T01:53:27;98991.84;;;15.38;100.00
41898;BME280;27576;53.366;-1.498;2022-09-09T02:01:49;98993.63;;;15.36;100.00
41898;BME280;27576;53.366;-1.498;2022-09-09T02:07:00;98971.34;;;15.25;100.00
41898;BME280;27576;53.366;-1.498;2022-09-09T02:09:26;98970.28;;;15.32;100.00
41898;BME280;27576;53.366;-1.498;2022-09-09T02:12:04;98978.09;;;15.32;100.00
41898;BME280;27576;53.366;-1.498;2022-09-09T02:14:36;98972.84;;;15.33;100.00
41898;BME280;27576;53.366;-1.498;2022-09-09T02:17:09;98966.94;;;15.27;100.00
41898;BME280;27576;53.366;-1.498;2022-09-09T02:19:40;98979.84;;;15.31;100.00
41898;BME280;27576;53.366;-1.498;2022-09-09T02:22:11;98971.31;;;15.26;100.00
41898;BME280;27576;53.366;-1.498;2022-09-09T02:24:38;98983.38;;;15.30;100.00
41898;BME280;27576;53.366;-1.498;2022-09-09T02:27:06;98973.06;;;15.26;100.00
41898;BME280;27576;53.366;-1.498;2022-09-09T02:29:36;98972.34;;;15.20;100.00
41898;BME280;27576;53.366;-1.498;2022-09-09T02:32:06;98974.84;;;15.25;100.00
41898;BME280;27576;53.366;-1.498;2022-09-09T02:34:36;98986.00;;;15.29;100.00
41898;BME280;27576;53.366;-1.498;2022-09-09T02:37:03;98967.16;;;15.19;100.00
41898;BME280;27576;53.366;-1.498;2022-09-09T02:39:31;98975.84;;;15.19;100.00
41898;BME280;27576;53.366;-1.498;2022-09-09T02:41:57;98980.00;;;15.27;100.00
41898;BME280;27576;53.366;-1.498;2022-09-09T02:44:22;98973.22;;;15.21;100.00
41898;BME280;27576;53.366;-1.498;2022-09-09T02:49:59;98986.91;;;15.29;100.00
41898;BME280;27576;53.366;-1.498;2022-09-09T02:52:59;98991.22;;;15.29;100.00
41898;BME280;27576;53.366;-1.498;2022-09-09T02:58:04;98984.38;;;15.25;100.00
41898;BME280;27576;53.366;-1.498;2022-09-09T03:00:32;98991.44;;;15.22;100.00
41898;BME280;27576;53.366;-1.498;2022-09-09T03:03:02;98992.34;;;15.21;100.00
41898;BME280;27576;53.366;-1.498;2022-09-09T03:05:28;98987.13;;;15.20;100.00
41898;BME280;27576;53.366;-1.498;2022-09-09T03:07:53;98984.53;;;15.20;100.00
41898;BME280;27576;53.366;-1.498;2022-09-09T03:10:18;98981.25;;;15.13;100.00
41898;BME280;27576;53.366;-1.498;2022-09-09T03:12:44;98980.22;;;15.19;100.00
41898;BME280;27576;53.366;-1.498;2022-09-09T03:15:09;98980.38;;;15.13;100.00
41898;BME280;27576;53.366;-1.498;2022-09-09T03:17:35;98979.44;;;15.15;100.00
41898;BME280;27576;53.366;-1.498;2022-09-09T03:20:05;98970.06;;;15.08;100.00
41898;BME280;27576;53.366;-1.498;2022-09-09T03:22:31;98973.44;;;15.13;100.00
41898;BME280;27576;53.366;-1.498;2022-09-09T03:24:56;98982.78;;;15.20;100.00
41898;BME280;27576;53.366;-1.498;2022-09-09T03:27:22;98980.28;;;15.16;100.00
41898;BME280;27576;53.366;-1.498;2022-09-09T03:29:47;98948.78;;;14.94;100.00
41898;BME280;27576;53.366;-1.498;2022-09-09T03:32:16;98989.81;;;15.18;100.00
41898;BME280;27576;53.366;-1.498;2022-09-09T03:34:42;98987.19;;;15.18;100.00
41898;BME280;27576;53.366;-1.498;2022-09-09T03:37:08;98937.63;;;14.87;100.00
41898;BME280;27576;53.366;-1.498;2022-09-09T03:39:33;98964.16;;;15.03;100.00
41898;BME280;27576;53.366;-1.498;2022-09-09T03:41:58;98997.69;;;15.17;100.00
41898;BME280;27576;53.366;-1.498;2022-09-09T03:44:24;98995.94;;;15.16;100.00
41898;BME280;27576;53.366;-1.498;2022-09-09T03:46:49;98990.06;;;15.09;100.00
41898;BME280;27576;53.366;-1.498;2022-09-09T03:49:15;98969.56;;;14.95;100.00
41898;BME280;27576;53.366;-1.498;2022-09-09T03:51:41;98972.97;;;14.99;100.00
41898;BME280;27576;53.366;-1.498;2022-09-09T03:54:07;98990.94;;;15.10;100.00
41898;BME280;27576;53.366;-1.498;2022-09-09T03:56:35;98972.25;;;14.94;100.00
41898;BME280;27576;53.366;-1.498;2022-09-09T03:59:02;98979.97;;;14.97;100.00
41898;BME280;27576;53.366;-1.498;2022-09-09T04:01:28;98996.31;;;15.04;100.00
41898;BME280;27576;53.366;-1.498;2022-09-09T04:03:54;98991.16;;;15.01;100.00
41898;BME280;27576;53.366;-1.498;2022-09-09T04:06:20;98980.22;;;14.88;100.00
41898;BME280;27576;53.366;-1.498;2022-09-09T04:08:46;98998.19;;;14.98;100.00
41898;BME280;27576;53.366;-1.498;2022-09-09T04:11:14;98993.81;;;14.99;100.00
41898;BME280;27576;53.366;-1.498;2022-09-09T04:13:40;98995.59;;;14.97;100.00
41898;BME280;27576;53.366;-1.498;2022-09-09T04:16:07;98999.13;;;14.96;100.00
41898;BME280;27576;53.366;-1.498;2022-09-09T04:18:34;98993.91;;;14.96;100.00
41898;BME280;27576;53.366;-1.498;2022-09-09T04:20:59;98985.34;;;14.91;100.00
41898;BME280;27576;53.366;-1.498;2022-09-09T04:23:26;98993.00;;;14.97;100.00
41898;BME280;27576;53.366;-1.498;2022-09-09T04:25:55;98995.59;;;14.97;100.00
41898;BME280;27576;53.366;-1.498;2022-09-09T04:28:22;98988.59;;;14.99;100.00
41898;BME280;27576;53.366;-1.498;2022-09-09T04:30:48;99005.03;;;15.03;100.00
41898;BME280;27576;53.366;-1.498;2022-09-09T04:33:14;99002.44;;;15.03;100.00
41898;BME280;27576;53.366;-1.498;2022-09-09T04:35:44;99006.75;;;15.04;100.00
41898;BME280;27576;53.366;-1.498;2022-09-09T04:38:10;99006.72;;;15.05;100.00
41898;BME280;27576;53.366;-1.498;2022-09-09T04:40:36;99010.28;;;15.01;100.00
41898;BME280;27576;53.366;-1.498;2022-09-09T04:43:02;99007.59;;;15.04;100.00
41898;BME280;27576;53.366;-1.498;2022-09-09T04:45:31;99005.06;;;15.01;100.00
41898;BME280;27576;53.366;-1.498;2022-09-09T04:47:57;99010.19;;;15.04;100.00
41898;BME280;27576;53.366;-1.498;2022-09-09T04:50:22;98990.56;;;14.91;100.00
41898;BME280;27576;53.366;-1.498;2022-09-09T04:52:47;99007.78;;;14.98;100.00
41898;BME280;27576;53.366;-1.498;2022-09-09T04:55:13;99002.56;;;14.98;100.00
41898;BME280;27576;53.366;-1.498;2022-09-09T04:57:40;98991.44;;;14.91;100.00
41898;BME280;27576;53.366;-1.498;2022-09-09T05:00:06;98990.56;;;14.91;100.00
41898;BME280;27576;53.366;-1.498;2022-09-09T05:02:31;99023.25;;;15.04;100.00
41898;BME280;27576;53.366;-1.498;2022-09-09T05:04:57;99022.38;;;15.05;100.00
41898;BME280;27576;53.366;-1.498;2022-09-09T05:07:23;99016.59;;;14.94;100.00
41898;BME280;27576;53.366;-1.498;2022-09-09T05:09:49;99003.75;;;14.86;100.00
41898;BME280;27576;53.366;-1.498;2022-09-09T05:12:15;99035.41;;;15.05;100.00
41898;BME280;27576;53.366;-1.498;2022-09-09T05:14:42;99037.13;;;15.06;100.00
41898;BME280;27576;53.366;-1.498;2022-09-09T05:17:08;99037.13;;;15.06;100.00
41898;BME280;27576;53.366;-1.498;2022-09-09T05:19:33;99038.03;;;15.04;100.00
41898;BME280;27576;53.366;-1.498;2022-09-09T05:21:58;99044.09;;;15.04;100.00
41898;BME280;27576;53.366;-1.498;2022-09-09T05:24:24;99037.19;;;15.03;100.00
41898;BME280;27576;53.366;-1.498;2022-09-09T05:26:49;99032.03;;;15.00;100.00
41898;BME280;27576;53.366;-1.498;2022-09-09T05:29:15;99026.16;;;14.93;100.00
41898;BME280;27576;53.366;-1.498;2022-09-09T05:31:43;99027.09;;;14.91;100.00
41898;BME280;27576;53.366;-1.498;2022-09-09T05:34:09;99045.91;;;15.02;100.00
41898;BME280;27576;53.366;-1.498;2022-09-09T05:36:34;99039.06;;;14.98;100.00
41898;BME280;27576;53.366;-1.498;2022-09-09T05:38:59;99034.88;;;14.92;100.00
41898;BME280;27576;53.366;-1.498;2022-09-09T05:41:26;99046.78;;;15.03;100.00
41898;BME280;27576;53.366;-1.498;2022-09-09T05:43:52;99042.41;;;15.03;100.00
41898;BME280;27576;53.366;-1.498;2022-09-09T05:46:20;99052.00;;;15.01;100.00
41898;BME280;27576;53.366;-1.498;2022-09-09T05:48:47;99049.38;;;15.03;100.00
41898;BME280;27576;53.366;-1.498;2022-09-09T05:51:17;99054.53;;;15.06;100.00
41898;BME280;27576;53.366;-1.498;2022-09-09T05:53:44;99053.66;;;15.05;100.00
41898;BME280;27576;53.366;-1.498;2022-09-09T05:56:10;99058.00;;;15.05;100.00
41898;BME280;27576;53.366;-1.498;2022-09-09T05:58:36;99032.31;;;14.91;100.00
41898;BME280;27576;53.366;-1.498;2022-09-09T06:01:04;99065.81;;;15.06;100.00
41898;BME280;27576;53.366;-1.498;2022-09-09T06:03:30;99046.00;;;14.99;100.00
41898;BME280;27576;53.366;-1.498;2022-09-09T06:06:01;99038.44;;;14.88;100.00
41898;BME280;27576;53.366;-1.498;2022-09-09T06:08:27;99061.50;;;15.05;100.00
41898;BME280;27576;53.366;-1.498;2022-09-09T06:10:53;99047.78;;;14.97;100.00
41898;BME280;27576;53.366;-1.498;2022-09-09T06:13:18;99071.94;;;15.05;100.00
41898;BME280;27576;53.366;-1.498;2022-09-09T06:15:51;99068.38;;;15.08;100.00
41898;BME280;27576;53.366;-1.498;2022-09-09T06:18:17;99045.38;;;14.89;100.00
41898;BME280;27576;53.366;-1.498;2022-09-09T06:20:59;99068.34;;;15.09;100.00
41898;BME280;27576;53.366;-1.498;2022-09-09T06:23:26;99060.75;;;15.00;100.00
41898;BME280;27576;53.366;-1.498;2022-09-09T06:26:06;99054.72;;;14.98;100.00
41898;BME280;27576;53.366;-1.498;2022-09-09T06:28:33;99068.41;;;15.06;100.00
41898;BME280;27576;53.366;-1.498;2022-09-09T06:31:04;99087.34;;;15.14;100.00
41898;BME280;27576;53.366;-1.498;2022-09-09T06:33:40;99062.44;;;15.03;100.00
41898;BME280;27576;53.366;-1.498;2022-09-09T06:36:17;99067.50;;;15.07;100.00
41898;BME280;27576;53.366;-1.498;2022-09-09T06:38:44;99085.63;;;15.13;100.00
41898;BME280;27576;53.366;-1.498;2022-09-09T06:41:10;99070.81;;;15.14;100.00
41898;BME280;27576;53.366;-1.498;2022-09-09T06:43:36;99094.97;;;15.22;100.00
41898;BME280;27576;53.366;-1.498;2022-09-09T06:46:09;99085.38;;;15.22;100.00
41898;BME280;27576;53.366;-1.498;2022-09-09T06:48:35;99084.53;;;15.20;100.00
41898;BME280;27576;53.366;-1.498;2022-09-09T06:53:32;99096.59;;;15.25;100.00
41898;BME280;27576;53.366;-1.498;2022-09-09T06:58:40;99084.66;;;15.16;100.00
41898;BME280;27576;53.366;-1.498;2022-09-09T07:01:13;99099.13;;;15.28;100.00
41898;BME280;27576;53.366;-1.498;2022-09-09T07:03:40;99085.44;;;15.19;100.00
41898;BME280;27576;53.366;-1.498;2022-09-09T07:06:08;99097.34;;;15.30;100.00
41898;BME280;27576;53.366;-1.498;2022-09-09T07:08:40;99103.50;;;15.27;100.00
41898;BME280;27576;53.366;-1.498;2022-09-09T07:11:07;99095.03;;;15.19;100.00
41898;BME280;27576;53.366;-1.498;2022-09-09T07:13:33;99111.47;;;15.22;100.00
41898;BME280;27576;53.366;-1.498;2022-09-09T07:16:06;99118.38;;;15.23;100.00
41898;BME280;27576;53.366;-1.498;2022-09-09T07:18:31;99117.53;;;15.23;100.00
41898;BME280;27576;53.366;-1.498;2022-09-09T07:20:58;99116.69;;;15.22;100.00
41898;BME280;27576;53.366;-1.498;2022-09-09T07:23:24;99104.88;;;15.09;100.00
41898;BME280;27576;53.366;-1.498;2022-09-09T07:25:50;99110.75;;;15.17;100.00
41898;BME280;27576;53.366;-1.498;2022-09-09T07:28:16;99105.75;;;15.08;100.00
41898;BME280;27576;53.366;-1.498;2022-09-09T07:30:42;99106.66;;;15.07;100.00
41898;BME280;27576;53.366;-1.498;2022-09-09T07:33:08;99115.19;;;15.12;100.00
41898;BME280;27576;53.366;-1.498;2022-09-09T07:35:35;99095.41;;;15.05;100.00
41898;BME280;27576;53.366;-1.498;2022-09-09T07:38:03;99127.13;;;15.22;100.00
41898;BME280;27576;53.366;-1.498;2022-09-09T07:40:32;99091.06;;;15.04;100.00
41898;BME280;27576;53.366;-1.498;2022-09-09T07:42:58;99128.91;;;15.20;100.00
41898;BME280;27576;53.366;-1.498;2022-09-09T07:45:24;99131.50;;;15.20;100.00
41898;BME280;27576;53.366;-1.498;2022-09-09T07:47:49;99117.00;;;15.10;100.00
41898;BME280;27576;53.366;-1.498;2022-09-09T07:50:15;99132.41;;;15.21;100.00
41898;BME280;27576;53.366;-1.498;2022-09-09T07:52:40;99113.50;;;15.11;100.00
41898;BME280;27576;53.366;-1.498;2022-09-09T07:55:06;99120.41;;;15.12;100.00
41898;BME280;27576;53.366;-1.498;2022-09-09T07:57:31;99136.72;;;15.22;100.00
41898;BME280;27576;53.366;-1.498;2022-09-09T07:59:57;99149.56;;;15.30;100.00
41898;BME280;27576;53.366;-1.498;2022-09-09T08:02:23;99147.81;;;15.30;100.00
41898;BME280;27576;53.366;-1.498;2022-09-09T08:04:51;99158.13;;;15.35;100.00
41898;BME280;27576;53.366;-1.498;2022-09-09T08:07:17;99153.75;;;15.35;100.00
41898;BME280;27576;53.366;-1.498;2022-09-09T08:09:42;99140.75;;;15.34;100.00
41898;BME280;27576;53.366;-1.498;2022-09-09T08:12:09;99149.28;;;15.39;100.00
41898;BME280;27576;53.366;-1.498;2022-09-09T08:14:36;99156.06;;;15.46;100.00
41898;BME280;27576;53.366;-1.498;2022-09-09T08:17:01;99156.94;;;15.46;100.00
41898;BME280;27576;53.366;-1.498;2022-09-09T08:19:27;99156.78;;;15.51;100.00
41898;BME280;27576;53.366;-1.498;2022-09-09T08:21:55;99161.03;;;15.55;100.00
41898;BME280;27576;53.366;-1.498;2022-09-09T08:24:20;99164.41;;;15.60;100.00
41898;BME280;27576;53.366;-1.498;2022-09-09T08:26:48;99171.25;;;15.64;100.00
41898;BME280;27576;53.366;-1.498;2022-09-09T08:29:17;99165.94;;;15.67;100.00
41898;BME280;27576;53.366;-1.498;2022-09-09T08:31:45;99173.63;;;15.74;100.00
41898;BME280;27576;53.366;-1.498;2022-09-09T08:34:11;99155.56;;;15.64;100.00
41898;BME280;27576;53.366;-1.498;2022-09-09T08:36:41;99168.53;;;15.69;100.00
41898;BME280;27576;53.366;-1.498;2022-09-09T08:39:09;99180.53;;;15.76;100.00
41898;BME280;27576;53.366;-1.498;2022-09-09T08:50:34;99185.63;;;15.81;100.00
41898;BME280;27576;53.366;-1.498;2022-09-09T08:52:40;99176.28;;;15.72;100.00
41898;BME280;27576;53.366;-1.498;2022-09-09T08:55:20;99198.59;;;15.84;100.00
41898;BME280;27576;53.366;-1.498;2022-09-09T08:57:53;99200.31;;;15.85;100.00
41898;BME280;27576;53.366;-1.498;2022-09-09T09:00:19;99185.84;;;15.71;100.00
41898;BME280;27576;53.366;-1.498;2022-09-09T09:03:05;99209.06;;;15.84;100.00
41898;BME280;27576;53.366;-1.498;2022-09-09T09:08:47;99176.41;;;15.67;100.00
41898;BME280;27576;53.366;-1.498;2022-09-09T09:11:18;99214.16;;;15.87;100.00
41898;BME280;27576;53.366;-1.498;2022-09-09T09:13:50;99214.94;;;15.90;100.00
41898;BME280;27576;53.366;-1.498;2022-09-09T09:16:30;99224.47;;;15.91;100.00
41898;BME280;27576;53.366;-1.498;2022-09-09T09:18:58;99227.00;;;15.96;100.00
41898;BME280;27576;53.366;-1.498;2022-09-09T09:21:44;99233.00;;;15.98;100.00
41898;BME280;27576;53.366;-1.498;2022-09-09T09:26:42;99224.88;;;16.09;100.00
41898;BME280;27576;53.366;-1.498;2022-09-09T09:29:18;99224.59;;;16.18;100.00
41898;BME280;27576;53.366;-1.498;2022-09-09T09:31:51;99221.09;;;16.19;100.00
41898;BME280;27576;53.366;-1.498;2022-09-09T09:34:17;99232.22;;;16.26;100.00
41898;BME280;27576;53.366;-1.498;2022-09-09T09:36:45;99211.50;;;16.19;100.00
41898;BME280;27576;53.366;-1.498;2022-09-09T09:39:26;99220.84;;;16.28;100.00
41898;BME280;27576;53.366;-1.498;2022-09-09T09:41:52;99234.53;;;16.36;100.00
41898;BME280;27576;53.366;-1.498;2022-09-09T09:44:27;99228.53;;;16.33;100.00
41898;BME280;27576;53.366;-1.498;2022-09-09T09:47:08;99231.97;;;16.35;100.00
41898;BME280;27576;53.366;-1.498;2022-09-09T09:49:34;99235.31;;;16.40;100.00
41898;BME280;27576;53.366;-1.498;2022-09-09T09:52:03;99246.47;;;16.45;100.00
41898;BME280;27576;53.366;-1.498;2022-09-09T09:54:33;99243.84;;;16.45;100.00
41898;BME280;27576;53.366;-1.498;2022-09-09T09:57:13;99237.72;;;16.46;100.00
41898;BME280;27576;53.366;-1.498;2022-09-09T09:59:40;99251.25;;;16.60;100.00
41898;BME280;27576;53.366;-1.498;2022-09-09T10:02:18;99243.09;;;16.71;100.00
41898;BME280;27576;53.366;-1.498;2022-09-09T10:04:44;99251.50;;;17.09;100.00
41898;BME280;27576;53.366;-1.498;2022-09-09T10:07:20;99240.38;;;17.29;100.00
41898;BME280;27576;53.366;-1.498;2022-09-09T10:09:52;99241.03;;;17.60;100.00
41898;BME280;27576;53.366;-1.498;2022-09-09T10:18:30;99253.94;;;18.63;100.00
41898;BME280;27576;53.366;-1.498;2022-09-09T10:21:01;99263.72;;;18.82;99.04
41898;BME280;27576;53.366;-1.498;2022-09-09T10:23:51;99260.69;;;18.93;95.66
41898;BME280;27576;53.366;-1.498;2022-09-09T10:29:25;99260.38;;;19.22;96.50
41898;BME280;27576;53.366;-1.498;2022-09-09T10:32:23;99245.41;;;19.45;95.15
41898;BME280;27576;53.366;-1.498;2022-09-09T10:34:58;99254.34;;;19.83;96.47
41898;BME280;27576;53.366;-1.498;2022-09-09T10:40:34;99245.50;;;20.44;91.80
41898;BME280;27576;53.366;-1.498;2022-09-09T10:46:11;99248.13;;;20.63;88.91
41898;BME280;27576;53.366;-1.498;2022-09-09T10:49:15;99242.28;;;20.37;86.90
41898;BME280;27576;53.366;-1.498;2022-09-09T10:56:51;99255.25;;;20.02;85.93
41898;BME280;27576;53.366;-1.498;2022-09-09T10:59:24;99257.78;;;19.85;88.90
41898;BME280;27576;53.366;-1.498;2022-09-09T11:02:03;99242.34;;;19.55;89.01
41898;BME280;27576;53.366;-1.498;2022-09-09T11:04:43;99257.06;;;19.59;89.53
41898;BME280;27576;53.366;-1.498;2022-09-09T11:07:13;99254.56;;;19.56;91.06
41898;BME280;27576;53.366;-1.498;2022-09-09T11:09:50;99251.78;;;19.81;91.56
41898;BME280;27576;53.366;-1.498;2022-09-09T11:12:19;99263.50;;;20.14;90.43
41898;BME280;27576;53.366;-1.498;2022-09-09T11:14:52;99245.69;;;20.39;87.86
41898;BME280;27576;53.366;-1.498;2022-09-09T11:17:23;99247.84;;;20.69;89.86
41898;BME280;27576;53.366;-1.498;2022-09-09T11:19:50;99250.88;;;20.97;87.40
41898;BME280;27576;53.366;-1.498;2022-09-09T11:28:21;99260.19;;;21.41;80.84
41898;BME280;27576;53.366;-1.498;2022-09-09T11:37:49;99232.63;;;21.29;82.09
41898;BME280;27576;53.366;-1.498;2022-09-09T11:40:21;99243.22;;;21.46;81.22
41898;BME280;27576;53.366;-1.498;2022-09-09T11:42:48;99258.72;;;21.52;79.94
41898;BME280;27576;53.366;-1.498;2022-09-09T11:45:24;99270.38;;;21.29;75.80
41898;BME280;27576;53.366;-1.498;2022-09-09T11:48:03;99251.78;;;20.79;75.96
41898;BME280;27576;53.366;-1.498;2022-09-09T11:50:37;99257.25;;;20.55;78.09
41898;BME280;27576;53.366;-1.498;2022-09-09T11:53:17;99273.91;;;20.35;79.64
41898;BME280;27576;53.366;-1.498;2022-09-09T11:55:45;99273.19;;;20.13;81.09
41898;BME280;27576;53.366;-1.498;2022-09-09T12:00:41;99291.13;;;19.83;84.41
41898;BME280;27576;53.366;-1.498;2022-09-09T12:03:49;99291.78;;;19.68;86.11
41898;BME280;27576;53.366;-1.498;2022-09-09T12:08:55;99269.53;;;19.34;87.92
41898;BME280;27576;53.366;-1.498;2022-09-09T12:11:29;99280.69;;;19.39;86.25
41898;BME280;27576;53.366;-1.498;2022-09-09T12:13:57;99289.97;;;19.48;88.49
41898;BME280;27576;53.366;-1.498;2022-09-09T12:16:34;99282.47;;;19.81;88.80
41898;BME280;27576;53.366;-1.498;2022-09-09T12:19:17;99268.19;;;20.84;89.02
41898;BME280;27576;53.366;-1.498;2022-09-09T12:22:25;99267.59;;;22.52;88.09
41898;BME280;27576;53.366;-1.498;2022-09-09T12:25:00;99248.28;;;23.90;77.96
41898;BME280;27576;53.366;-1.498;2022-09-09T12:27:38;99278.63;;;24.70;70.20
41898;BME280;27576;53.366;-1.498;2022-09-09T12:30:16;99276.94;;;24.55;70.82
41898;BME280;27576;53.366;-1.498;2022-09-09T12:32:42;99244.06;;;24.44;73.63
41898;BME280;27576;53.366;-1.498;2022-09-09T12:35:22;99280.09;;;25.30;73.76
41898;BME280;27576;53.366;-1.498;2022-09-09T12:37:54;99287.19;;;25.69;68.70
41898;BME280;27576;53.366;-1.498;2022-09-09T12:40:25;99292.41;;;25.31;68.71
41898;BME280;27576;53.366;-1.498;2022-09-09T12:42:51;99301.34;;;24.60;71.03
41898;BME280;27576;53.366;-1.498;2022-09-09T12:45:22;99301.06;;;23.77;72.71
41898;BME280;27576;53.366;-1.498;2022-09-09T12:47:58;99307.94;;;23.03;74.87
41898;BME280;27576;53.366;-1.498;2022-09-09T12:50:37;99315.97;;;22.36;78.52
41898;BME280;27576;53.366;-1.498;2022-09-09T12:53:10;99320.75;;;21.77;80.86
41898;BME280;27576;53.366;-1.498;2022-09-09T12:55:50;99315.47;;;21.23;81.42
41898;BME280;27576;53.366;-1.498;2022-09-09T12:58:18;99314.88;;;20.80;85.07
41898;BME280;27576;53.366;-1.498;2022-09-09T13:00:52;99294.91;;;20.37;87.64
41898;BME280;27576;53.366;-1.498;2022-09-09T13:03:21;99336.53;;;20.27;88.44
41898;BME280;27576;53.366;-1.498;2022-09-09T13:05:47;99321.72;;;20.06;90.44
41898;BME280;27576;53.366;-1.498;2022-09-09T13:08:14;99340.03;;;20.07;93.77
41898;BME280;27576;53.366;-1.498;2022-09-09T13:11:03;99343.69;;;20.65;96.39
41898;BME280;27576;53.366;-1.498;2022-09-09T13:13:40;99356.94;;;20.82;89.04
41898;BME280;27576;53.366;-1.498;2022-09-09T13:16:22;99349.38;;;20.55;85.88
41898;BME280;27576;53.366;-1.498;2022-09-09T13:18:49;99348.31;;;20.19;85.44
41898;BME280;27576;53.366;-1.498;2022-09-09T13:21:15;99359.09;;;19.92;86.68
41898;BME280;27576;53.366;-1.498;2022-09-09T13:23:40;99356.00;;;19.62;87.04
41898;BME280;27576;53.366;-1.498;2022-09-09T13:26:26;99358.03;;;19.32;86.33
41898;BME280;27576;53.366;-1.498;2022-09-09T13:28:53;99326.50;;;18.88;86.86
41898;BME280;27576;53.366;-1.498;2022-09-09T13:31:28;99325.66;;;18.62;87.15
41898;BME280;27576;53.366;-1.498;2022-09-09T13:33:54;99353.00;;;18.57;87.24
41898;BME280;27576;53.366;-1.498;2022-09-09T13:36:30;99360.91;;;18.32;87.58
41898;BME280;27576;53.366;-1.498;2022-09-09T13:38:58;99345.25;;;18.05;89.94
41898;BME280;27576;53.366;-1.498;2022-09-09T13:41:31;99335.47;;;17.84;92.37
41898;BME280;27576;53.366;-1.498;2022-09-09T13:43:58;99327.31;;;17.66;94.06
41898;BME280;27576;53.366;-1.498;2022-09-09T13:49:19;99362.91;;;17.72;98.66
41898;BME280;27576;53.366;-1.498;2022-09-09T13:51:50;99353.66;;;17.62;98.60
41898;BME280;27576;53.366;-1.498;2022-09-09T13:54:18;99367.22;;;17.75;99.78
41898;BME280;27576;53.366;-1.498;2022-09-09T13:56:44;99376.56;;;17.83;100.00
41898;BME280;27576;53.366;-1.498;2022-09-09T13:59:18;99369.94;;;17.98;100.00
41898;BME280;27576;53.366;-1.498;2022-09-09T14:01:46;99349.44;;;18.59;100.00
41898;BME280;27576;53.366;-1.498;2022-09-09T14:04:12;99321.25;;;18.88;100.00
41898;BME280;27576;53.366;-1.498;2022-09-09T14:06:39;99351.81;;;19.34;100.00
41898;BME280;27576;53.366;-1.498;2022-09-09T14:09:06;99354.91;;;19.44;98.77
41898;BME280;27576;53.366;-1.498;2022-09-09T14:11:31;99328.38;;;19.30;97.35
41898;BME280;27576;53.366;-1.498;2022-09-09T14:13:57;99363.59;;;19.46;97.62
41898;BME280;27576;53.366;-1.498;2022-09-09T14:16:22;99369.63;;;19.48;96.94
41898;BME280;27576;53.366;-1.498;2022-09-09T14:18:48;99370.56;;;19.47;96.64
41898;BME280;27576;53.366;-1.498;2022-09-09T14:21:13;99370.75;;;19.43;96.90
41898;BME280;27576;53.366;-1.498;2022-09-09T14:23:41;99381.44;;;19.38;96.60
41898;BME280;27576;53.366;-1.498;2022-09-09T14:26:07;99390.78;;;19.23;96.71
41898;BME280;27576;53.366;-1.498;2022-09-09T14:28:33;99401.59;;;19.16;96.80
41898;BME280;27576;53.366;-1.498;2022-09-09T14:31:00;99398.69;;;19.00;97.05
41898;BME280;27576;53.366;-1.498;2022-09-09T14:33:27;99358.16;;;18.60;96.31